KEMP/EMP METAR and TAF weather

Enter ICAO airport designator
Station Type Date Time Source
KEMP METAR 2022/05/24 11:53 UTC NOAA

KEMP 241153Z AUTO 08010KT 7SM -RA OVC004 12/11 A2995 RMK AO2 SLP142 P0009 60048 70053 T01220111 10133 20122 56013


Station Type Date Time Source
KEMP Decoded METAR 2022/05/24 11:53 UTC NOAA

EMPORIA MUNICIPAL AIRPORT, KS, United States (KEMP) 38-20N 96-12W 367M
May 24, 2022 - 07:53 AM EDT / 2022.05.24 1153 UTC
Wind: from the E (080 degrees) at 12 MPH (10 KT):0
Visibility: 7 mile(s):0
Sky conditions: overcast
Weather: light rain
Precipitation last hour: 0.09 inches
Temperature: 54.0 F (12.2 C)
Dew Point: 52.0 F (11.1 C)
Relative Humidity: 92%
Pressure (altimeter): 29.95 in. Hg (1014 hPa)
Pressure tendency: 0.04 inches (1.3 hPa) lower than three hours ago
ob: KEMP 241153Z AUTO 08010KT 7SM -RA OVC004 12/11 A2995 RMK AO2 SLP142 P0009 60048 70053 T01220111 10133 20122 56013
cycle: 12

Station Type Date Time Source
KEMP TAF UTC NOAA

Error!

Example: see airport list